sensor_id;sensor_type;location;lat;lon;timestamp;pressure;altitude;pressure_sealevel;temperature;humidity
54038;BME280;39954;48.844;9.726;2023-03-04T00:00:20;96560.22;;;-3.58;100.00
54038;BME280;39954;48.844;9.726;2023-03-04T00:01:26;96551.78;;;-3.48;100.00
54038;BME280;39954;48.844;9.726;2023-03-04T00:02:31;96558.59;;;-3.47;100.00
54038;BME280;39954;48.844;9.726;2023-03-04T00:03:38;96554.34;;;-3.49;100.00
54038;BME280;39954;48.844;9.726;2023-03-04T00:04:43;96548.41;;;-3.50;100.00
54038;BME280;39954;48.844;9.726;2023-03-04T00:05:48;96555.19;;;-3.49;100.00
54038;BME280;39954;48.844;9.726;2023-03-04T00:06:51;96550.09;;;-3.49;100.00
54038;BME280;39954;48.844;9.726;2023-03-04T00:07:56;96546.69;;;-3.54;100.00
54038;BME280;39954;48.844;9.726;2023-03-04T00:08:59;96553.44;;;-3.56;100.00
54038;BME280;39954;48.844;9.726;2023-03-04T00:10:06;96555.16;;;-3.55;100.00
54038;BME280;39954;48.844;9.726;2023-03-04T00:11:08;96554.25;;;-3.58;100.00
54038;BME280;39954;48.844;9.726;2023-03-04T00:12:14;96558.47;;;-3.62;100.00
54038;BME280;39954;48.844;9.726;2023-03-04T00:13:16;96550.00;;;-3.66;100.00
54038;BME280;39954;48.844;9.726;2023-03-04T00:14:23;96546.59;;;-3.72;100.00
54038;BME280;39954;48.844;9.726;2023-03-04T00:15:25;96547.41;;;-3.73;100.00
54038;BME280;39954;48.844;9.726;2023-03-04T00:16:30;96559.25;;;-3.75;100.00
54038;BME280;39954;48.844;9.726;2023-03-04T00:17:33;96549.94;;;-3.78;100.00
54038;BME280;39954;48.844;9.726;2023-03-04T00:18:41;96548.25;;;-3.77;100.00
54038;BME280;39954;48.844;9.726;2023-03-04T00:19:47;96559.22;;;-3.80;100.00
54038;BME280;39954;48.844;9.726;2023-03-04T00:20:53;96553.25;;;-3.87;100.00
54038;BME280;39954;48.844;9.726;2023-03-04T00:21:56;96539.72;;;-3.86;100.00
54038;BME280;39954;48.844;9.726;2023-03-04T00:23:01;96544.81;;;-3.86;100.00
54038;BME280;39954;48.844;9.726;2023-03-04T00:24:04;96549.88;;;-3.89;100.00
54038;BME280;39954;48.844;9.726;2023-03-04T00:25:13;96542.25;;;-3.89;100.00
54038;BME280;39954;48.844;9.726;2023-03-04T00:26:15;96550.69;;;-3.90;100.00
54038;BME280;39954;48.844;9.726;2023-03-04T00:27:21;96559.97;;;-3.93;100.00
54038;BME280;39954;48.844;9.726;2023-03-04T00:28:24;96550.66;;;-3.94;100.00
54038;BME280;39954;48.844;9.726;2023-03-04T00:29:29;96546.41;;;-3.97;100.00
54038;BME280;39954;48.844;9.726;2023-03-04T00:30:31;96551.50;;;-3.97;100.00
54038;BME280;39954;48.844;9.726;2023-03-04T00:31:37;96548.09;;;-3.99;100.00
54038;BME280;39954;48.844;9.726;2023-03-04T00:32:39;96548.94;;;-4.00;100.00
54038;BME280;39954;48.844;9.726;2023-03-04T00:33:47;96550.66;;;-3.97;100.00
54038;BME280;39954;48.844;9.726;2023-03-04T00:34:52;96553.16;;;-3.99;100.00
54038;BME280;39954;48.844;9.726;2023-03-04T00:35:57;96546.41;;;-4.00;100.00
54038;BME280;39954;48.844;9.726;2023-03-04T00:37:00;96548.09;;;-3.99;100.00
54038;BME280;39954;48.844;9.726;2023-03-04T00:38:06;96548.94;;;-3.98;100.00
54038;BME280;39954;48.844;9.726;2023-03-04T00:39:08;96551.50;;;-3.97;100.00
54038;BME280;39954;48.844;9.726;2023-03-04T00:40:16;96542.16;;;-3.98;100.00
54038;BME280;39954;48.844;9.726;2023-03-04T00:41:19;96548.06;;;-4.02;100.00
54038;BME280;39954;48.844;9.726;2023-03-04T00:42:27;96545.50;;;-4.05;100.00
54038;BME280;39954;48.844;9.726;2023-03-04T00:43:32;96549.69;;;-4.10;100.00
54038;BME280;39954;48.844;9.726;2023-03-04T00:44:35;96547.13;;;-4.12;100.00
54038;BME280;39954;48.844;9.726;2023-03-04T00:45:40;96547.16;;;-4.10;100.00
54038;BME280;39954;48.844;9.726;2023-03-04T00:46:42;96548.88;;;-4.08;100.00
54038;BME280;39954;48.844;9.726;2023-03-04T00:47:48;96551.47;;;-4.03;100.00
54038;BME280;39954;48.844;9.726;2023-03-04T00:48:51;96555.75;;;-3.93;100.00
54038;BME280;39954;48.844;9.726;2023-03-04T00:50:00;96549.88;;;-3.84;100.00
54038;BME280;39954;48.844;9.726;2023-03-04T00:51:03;96553.34;;;-3.74;100.00
54038;BME280;39954;48.844;9.726;2023-03-04T00:52:09;96549.97;;;-3.70;100.00
54038;BME280;39954;48.844;9.726;2023-03-04T00:53:12;96555.94;;;-3.65;100.00
54038;BME280;39954;48.844;9.726;2023-03-04T00:54:17;96556.78;;;-3.69;100.00
54038;BME280;39954;48.844;9.726;2023-03-04T00:55:19;96545.72;;;-3.74;100.00
54038;BME280;39954;48.844;9.726;2023-03-04T00:56:25;96553.31;;;-3.77;100.00
54038;BME280;39954;48.844;9.726;2023-03-04T00:57:27;96554.97;;;-3.81;100.00
54038;BME280;39954;48.844;9.726;2023-03-04T00:58:32;96549.91;;;-3.83;100.00
54038;BME280;39954;48.844;9.726;2023-03-04T00:59:34;96546.50;;;-3.85;100.00
54038;BME280;39954;48.844;9.726;2023-03-04T01:00:41;96547.34;;;-3.86;100.00
54038;BME280;39954;48.844;9.726;2023-03-04T01:01:44;96553.22;;;-3.90;100.00
54038;BME280;39954;48.844;9.726;2023-03-04T01:02:49;96550.66;;;-3.93;100.00
54038;BME280;39954;48.844;9.726;2023-03-04T01:03:52;96541.34;;;-3.97;100.00
54038;BME280;39954;48.844;9.726;2023-03-04T01:05:00;96540.50;;;-3.97;100.00
54038;BME280;39954;48.844;9.726;2023-03-04T01:06:03;96534.56;;;-3.99;100.00
54038;BME280;39954;48.844;9.726;2023-03-04T01:07:08;96543.00;;;-3.99;100.00
54038;BME280;39954;48.844;9.726;2023-03-04T01:08:10;96536.25;;;-4.00;100.00
54038;BME280;39954;48.844;9.726;2023-03-04T01:09:16;96533.69;;;-3.98;100.00
54038;BME280;39954;48.844;9.726;2023-03-04T01:10:18;96531.16;;;-4.00;100.00
54038;BME280;39954;48.844;9.726;2023-03-04T01:11:24;96532.81;;;-4.05;100.00
54038;BME280;39954;48.844;9.726;2023-03-04T01:12:27;96532.78;;;-4.10;100.00
54038;BME280;39954;48.844;9.726;2023-03-04T01:13:33;96532.72;;;-4.19;100.00
54038;BME280;39954;48.844;9.726;2023-03-04T01:14:36;96533.53;;;-4.21;100.00
54038;BME280;39954;48.844;9.726;2023-03-04T01:15:41;96523.41;;;-4.20;100.00
54038;BME280;39954;48.844;9.726;2023-03-04T01:16:43;96522.53;;;-4.20;100.00
54038;BME280;39954;48.844;9.726;2023-03-04T01:17:50;96524.28;;;-4.16;100.00
54038;BME280;39954;48.844;9.726;2023-03-04T01:18:52;96524.28;;;-4.13;100.00
54038;BME280;39954;48.844;9.726;2023-03-04T01:20:04;96523.44;;;-4.12;100.00
54038;BME280;39954;48.844;9.726;2023-03-04T01:21:06;96526.00;;;-4.09;100.00
54038;BME280;39954;48.844;9.726;2023-03-04T01:22:12;96520.91;;;-4.09;100.00
54038;BME280;39954;48.844;9.726;2023-03-04T01:23:16;96523.47;;;-4.11;100.00
54038;BME280;39954;48.844;9.726;2023-03-04T01:24:21;96529.41;;;-4.09;100.00
54038;BME280;39954;48.844;9.726;2023-03-04T01:25:24;96523.50;;;-4.08;100.00
54038;BME280;39954;48.844;9.726;2023-03-04T01:26:29;96522.66;;;-4.08;100.00
54038;BME280;39954;48.844;9.726;2023-03-04T01:27:31;96521.78;;;-4.07;100.00
54038;BME280;39954;48.844;9.726;2023-03-04T01:28:37;96519.25;;;-4.10;100.00
54038;BME280;39954;48.844;9.726;2023-03-04T01:29:39;96521.78;;;-4.10;100.00
54038;BME280;39954;48.844;9.726;2023-03-04T01:30:44;96519.22;;;-4.13;100.00
54038;BME280;39954;48.844;9.726;2023-03-04T01:31:47;96518.34;;;-4.15;100.00
54038;BME280;39954;48.844;9.726;2023-03-04T01:32:52;96522.56;;;-4.17;100.00
54038;BME280;39954;48.844;9.726;2023-03-04T01:33:55;96511.56;;;-4.18;100.00
54038;BME280;39954;48.844;9.726;2023-03-04T01:35:04;96509.03;;;-4.16;100.00
54038;BME280;39954;48.844;9.726;2023-03-04T01:36:07;96507.38;;;-4.13;100.00
54038;BME280;39954;48.844;9.726;2023-03-04T01:37:12;96508.22;;;-4.14;100.00
54038;BME280;39954;48.844;9.726;2023-03-04T01:38:15;96510.72;;;-4.15;100.00
54038;BME280;39954;48.844;9.726;2023-03-04T01:39:21;96511.63;;;-4.10;100.00
54038;BME280;39954;48.844;9.726;2023-03-04T01:40:25;96510.84;;;-4.00;100.00
54038;BME280;39954;48.844;9.726;2023-03-04T01:41:31;96512.56;;;-3.96;100.00
54038;BME280;39954;48.844;9.726;2023-03-04T01:42:34;96505.78;;;-3.97;100.00
54038;BME280;39954;48.844;9.726;2023-03-04T01:43:40;96510.88;;;-3.97;100.00
54038;BME280;39954;48.844;9.726;2023-03-04T01:44:43;96505.78;;;-3.98;100.00
54038;BME280;39954;48.844;9.726;2023-03-04T01:45:50;96512.53;;;-4.02;100.00
54038;BME280;39954;48.844;9.726;2023-03-04T01:46:54;96509.13;;;-4.01;100.00
54038;BME280;39954;48.844;9.726;2023-03-04T01:48:00;96511.66;;;-4.04;100.00
54038;BME280;39954;48.844;9.726;2023-03-04T01:49:04;96511.66;;;-4.06;100.00
54038;BME280;39954;48.844;9.726;2023-03-04T01:50:26;96506.59;;;-4.06;100.00
54038;BME280;39954;48.844;9.726;2023-03-04T01:51:32;96507.41;;;-4.08;100.00
54038;BME280;39954;48.844;9.726;2023-03-04T01:52:42;96505.69;;;-4.12;100.00
54038;BME280;39954;48.844;9.726;2023-03-04T01:53:49;96509.88;;;-4.17;100.00
54038;BME280;39954;48.844;9.726;2023-03-04T01:54:54;96509.00;;;-4.18;100.00
54038;BME280;39954;48.844;9.726;2023-03-04T01:56:01;96511.53;;;-4.21;100.00
54038;BME280;39954;48.844;9.726;2023-03-04T01:57:14;96507.31;;;-4.22;100.00
54038;BME280;39954;48.844;9.726;2023-03-04T01:58:20;96513.22;;;-4.24;100.00
54038;BME280;39954;48.844;9.726;2023-03-04T01:59:24;96514.03;;;-4.27;100.00
54038;BME280;39954;48.844;9.726;2023-03-04T02:00:32;96512.34;;;-4.28;100.00
54038;BME280;39954;48.844;9.726;2023-03-04T02:01:35;96509.81;;;-4.28;100.00
54038;BME280;39954;48.844;9.726;2023-03-04T02:02:41;96513.22;;;-4.24;100.00
54038;BME280;39954;48.844;9.726;2023-03-04T02:03:44;96508.13;;;-4.23;100.00
54038;BME280;39954;48.844;9.726;2023-03-04T02:04:49;96513.22;;;-4.24;100.00
54038;BME280;39954;48.844;9.726;2023-03-04T02:05:54;96507.28;;;-4.28;100.00
54038;BME280;39954;48.844;9.726;2023-03-04T02:07:01;96511.50;;;-4.27;100.00
54038;BME280;39954;48.844;9.726;2023-03-04T02:08:05;96509.78;;;-4.30;100.00
54038;BME280;39954;48.844;9.726;2023-03-04T02:09:11;96516.53;;;-4.32;100.00
54038;BME280;39954;48.844;9.726;2023-03-04T02:10:14;96506.34;;;-4.35;100.00
54038;BME280;39954;48.844;9.726;2023-03-04T02:11:19;96508.00;;;-4.41;100.00
54038;BME280;39954;48.844;9.726;2023-03-04T02:12:22;96501.22;;;-4.44;100.00
54038;BME280;39954;48.844;9.726;2023-03-04T02:13:28;96503.75;;;-4.44;100.00
54038;BME280;39954;48.844;9.726;2023-03-04T02:14:31;96499.53;;;-4.43;100.00
54038;BME280;39954;48.844;9.726;2023-03-04T02:15:37;96509.69;;;-4.42;100.00
54038;BME280;39954;48.844;9.726;2023-03-04T02:16:40;96509.72;;;-4.39;100.00
54038;BME280;39954;48.844;9.726;2023-03-04T02:17:45;96508.06;;;-4.34;100.00
54038;BME280;39954;48.844;9.726;2023-03-04T02:18:48;96503.00;;;-4.34;100.00
54038;BME280;39954;48.844;9.726;2023-03-04T02:20:00;96505.53;;;-4.34;100.00
54038;BME280;39954;48.844;9.726;2023-03-04T02:21:11;96504.66;;;-4.34;100.00
54038;BME280;39954;48.844;9.726;2023-03-04T02:22:19;96507.19;;;-4.36;100.00
54038;BME280;39954;48.844;9.726;2023-03-04T02:23:25;96510.59;;;-4.37;100.00
54038;BME280;39954;48.844;9.726;2023-03-04T02:24:38;96511.38;;;-4.41;100.00
54038;BME280;39954;48.844;9.726;2023-03-04T02:25:44;96504.63;;;-4.42;100.00
54038;BME280;39954;48.844;9.726;2023-03-04T02:26:54;96509.66;;;-4.43;100.00
54038;BME280;39954;48.844;9.726;2023-03-04T02:27:56;96508.84;;;-4.41;100.00
54038;BME280;39954;48.844;9.726;2023-03-04T02:29:02;96504.59;;;-4.43;100.00
54038;BME280;39954;48.844;9.726;2023-03-04T02:30:08;96502.91;;;-4.43;100.00
54038;BME280;39954;48.844;9.726;2023-03-04T02:31:22;96502.06;;;-4.45;100.00
54038;BME280;39954;48.844;9.726;2023-03-04T02:32:25;96503.72;;;-4.47;100.00
54038;BME280;39954;48.844;9.726;2023-03-04T02:33:31;96507.13;;;-4.48;100.00
54038;BME280;39954;48.844;9.726;2023-03-04T02:34:34;96504.53;;;-4.51;100.00
54038;BME280;39954;48.844;9.726;2023-03-04T02:35:45;96512.97;;;-4.54;100.00
54038;BME280;39954;48.844;9.726;2023-03-04T02:36:50;96506.16;;;-4.59;100.00
54038;BME280;39954;48.844;9.726;2023-03-04T02:37:56;96505.31;;;-4.61;100.00
54038;BME280;39954;48.844;9.726;2023-03-04T02:39:02;96506.94;;;-4.66;100.00
54038;BME280;39954;48.844;9.726;2023-03-04T02:40:13;96510.25;;;-4.70;100.00
54038;BME280;39954;48.844;9.726;2023-03-04T02:41:22;96510.22;;;-4.77;100.00
54038;BME280;39954;48.844;9.726;2023-03-04T02:42:31;96505.97;;;-4.81;100.00
54038;BME280;39954;48.844;9.726;2023-03-04T02:43:33;96508.50;;;-4.81;100.00
54038;BME280;39954;48.844;9.726;2023-03-04T02:44:40;96503.38;;;-4.87;100.00
54038;BME280;39954;48.844;9.726;2023-03-04T02:45:45;96508.34;;;-4.93;100.00
54038;BME280;39954;48.844;9.726;2023-03-04T02:46:53;96510.06;;;-4.95;100.00
54038;BME280;39954;48.844;9.726;2023-03-04T02:47:56;96506.66;;;-4.96;100.00
54038;BME280;39954;48.844;9.726;2023-03-04T02:49:01;96504.91;;;-5.00;100.00
54038;BME280;39954;48.844;9.726;2023-03-04T02:50:05;96509.16;;;-4.99;100.00
54038;BME280;39954;48.844;9.726;2023-03-04T02:51:10;96513.38;;;-4.99;100.00
54038;BME280;39954;48.844;9.726;2023-03-04T02:52:15;96505.78;;;-4.98;100.00
54038;BME280;39954;48.844;9.726;2023-03-04T02:53:22;96506.66;;;-4.96;100.00
54038;BME280;39954;48.844;9.726;2023-03-04T02:54:26;96510.91;;;-4.91;100.00
54038;BME280;39954;48.844;9.726;2023-03-04T02:55:33;96503.38;;;-4.87;100.00
54038;BME280;39954;48.844;9.726;2023-03-04T02:56:35;96504.19;;;-4.89;100.00
54038;BME280;39954;48.844;9.726;2023-03-04T02:57:45;96505.03;;;-4.87;100.00
54038;BME280;39954;48.844;9.726;2023-03-04T02:58:47;96505.06;;;-4.86;100.00
54038;BME280;39954;48.844;9.726;2023-03-04T02:59:55;96501.69;;;-4.85;100.00
54038;BME280;39954;48.844;9.726;2023-03-04T03:00:57;96505.09;;;-4.83;100.00
54038;BME280;39954;48.844;9.726;2023-03-04T03:02:03;96507.63;;;-4.84;100.00
54038;BME280;39954;48.844;9.726;2023-03-04T03:03:06;96508.47;;;-4.84;100.00
54038;BME280;39954;48.844;9.726;2023-03-04T03:04:12;96505.94;;;-4.84;100.00
54038;BME280;39954;48.844;9.726;2023-03-04T03:05:15;96505.09;;;-4.83;100.00
54038;BME280;39954;48.844;9.726;2023-03-04T03:06:20;96513.56;;;-4.81;100.00
54038;BME280;39954;48.844;9.726;2023-03-04T03:07:27;96506.75;;;-4.85;100.00
54038;BME280;39954;48.844;9.726;2023-03-04T03:08:30;96507.63;;;-4.83;100.00
54038;BME280;39954;48.844;9.726;2023-03-04T03:09:35;96505.00;;;-4.90;100.00
54038;BME280;39954;48.844;9.726;2023-03-04T03:10:38;96511.75;;;-4.94;100.00
54038;BME280;39954;48.844;9.726;2023-03-04T03:11:43;96510.88;;;-4.96;100.00
54038;BME280;39954;48.844;9.726;2023-03-04T03:12:49;96505.78;;;-5.01;100.00
54038;BME280;39954;48.844;9.726;2023-03-04T03:13:54;96505.72;;;-5.05;100.00
54038;BME280;39954;48.844;9.726;2023-03-04T03:14:57;96509.03;;;-5.11;100.00
54038;BME280;39954;48.844;9.726;2023-03-04T03:16:03;96504.78;;;-5.13;100.00
54038;BME280;39954;48.844;9.726;2023-03-04T03:17:05;96508.97;;;-5.17;100.00
54038;BME280;39954;48.844;9.726;2023-03-04T03:18:11;96508.06;;;-5.22;100.00
54038;BME280;39954;48.844;9.726;2023-03-04T03:19:14;96506.34;;;-5.25;100.00
54038;BME280;39954;48.844;9.726;2023-03-04T03:20:25;96514.81;;;-5.23;100.00
54038;BME280;39954;48.844;9.726;2023-03-04T03:21:28;96512.25;;;-5.26;100.00
54038;BME280;39954;48.844;9.726;2023-03-04T03:22:33;96515.66;;;-5.24;100.00
54038;BME280;39954;48.844;9.726;2023-03-04T03:23:37;96518.13;;;-5.27;100.00
54038;BME280;39954;48.844;9.726;2023-03-04T03:24:42;96511.41;;;-5.26;100.00
54038;BME280;39954;48.844;9.726;2023-03-04T03:25:44;96513.03;;;-5.30;100.00
54038;BME280;39954;48.844;9.726;2023-03-04T03:26:50;96509.66;;;-5.30;100.00
54038;BME280;39954;48.844;9.726;2023-03-04T03:27:55;96513.06;;;-5.27;100.00
54038;BME280;39954;48.844;9.726;2023-03-04T03:29:00;96513.88;;;-5.31;100.00
54038;BME280;39954;48.844;9.726;2023-03-04T03:30:05;96513.06;;;-5.28;100.00
54038;BME280;39954;48.844;9.726;2023-03-04T03:31:11;96515.56;;;-5.30;100.00
54038;BME280;39954;48.844;9.726;2023-03-04T03:32:13;96517.25;;;-5.32;100.00
54038;BME280;39954;48.844;9.726;2023-03-04T03:33:19;96514.66;;;-5.36;100.00
54038;BME280;39954;48.844;9.726;2023-03-04T03:34:21;96515.44;;;-5.42;100.00
54038;BME280;39954;48.844;9.726;2023-03-04T03:35:28;96511.97;;;-5.47;100.00
54038;BME280;39954;48.844;9.726;2023-03-04T03:36:32;96507.72;;;-5.51;100.00
54038;BME280;39954;48.844;9.726;2023-03-04T03:37:37;96505.97;;;-5.55;100.00
54038;BME280;39954;48.844;9.726;2023-03-04T03:38:39;96512.75;;;-5.54;100.00
54038;BME280;39954;48.844;9.726;2023-03-04T03:39:45;96511.81;;;-5.61;100.00
54038;BME280;39954;48.844;9.726;2023-03-04T03:40:47;96505.91;;;-5.62;100.00
54038;BME280;39954;48.844;9.726;2023-03-04T03:41:52;96514.34;;;-5.63;100.00
54038;BME280;39954;48.844;9.726;2023-03-04T03:42:58;96512.59;;;-5.67;100.00
54038;BME280;39954;48.844;9.726;2023-03-04T03:44:03;96510.03;;;-5.68;100.00
54038;BME280;39954;48.844;9.726;2023-03-04T03:45:06;96509.16;;;-5.69;100.00
54038;BME280;39954;48.844;9.726;2023-03-04T03:46:13;96505.75;;;-5.74;100.00
54038;BME280;39954;48.844;9.726;2023-03-04T03:47:15;96507.41;;;-5.76;100.00
54038;BME280;39954;48.844;9.726;2023-03-04T03:48:21;96508.19;;;-5.80;100.00
54038;BME280;39954;48.844;9.726;2023-03-04T03:49:24;96504.78;;;-5.82;100.00
54038;BME280;39954;48.844;9.726;2023-03-04T03:50:29;96497.19;;;-5.82;100.00
54038;BME280;39954;48.844;9.726;2023-03-04T03:51:31;96503.97;;;-5.81;100.00
54038;BME280;39954;48.844;9.726;2023-03-04T03:52:37;96497.16;;;-5.83;100.00
54038;BME280;39954;48.844;9.726;2023-03-04T03:53:39;96501.38;;;-5.84;100.00
54038;BME280;39954;48.844;9.726;2023-03-04T03:54:44;96494.66;;;-5.80;100.00
54038;BME280;39954;48.844;9.726;2023-03-04T03:55:47;96500.53;;;-5.83;100.00
54038;BME280;39954;48.844;9.726;2023-03-04T03:56:52;96502.16;;;-5.88;100.00
54038;BME280;39954;48.844;9.726;2023-03-04T03:57:58;96495.44;;;-5.86;100.00
54038;BME280;39954;48.844;9.726;2023-03-04T03:59:05;96503.91;;;-5.84;100.00
54038;BME280;39954;48.844;9.726;2023-03-04T04:00:09;96496.28;;;-5.87;100.00
54038;BME280;39954;48.844;9.726;2023-03-04T04:01:15;96502.16;;;-5.90;100.00
54038;BME280;39954;48.844;9.726;2023-03-04T04:02:17;96501.25;;;-5.95;100.00
54038;BME280;39954;48.844;9.726;2023-03-04T04:03:24;96505.44;;;-5.97;100.00
54038;BME280;39954;48.844;9.726;2023-03-04T04:04:27;96515.53;;;-6.01;100.00
54038;BME280;39954;48.844;9.726;2023-03-04T04:05:32;96510.47;;;-6.01;100.00
54038;BME280;39954;48.844;9.726;2023-03-04T04:06:34;96511.28;;;-6.02;100.00
54038;BME280;39954;48.844;9.726;2023-03-04T04:07:39;96504.56;;;-6.00;100.00
54038;BME280;39954;48.844;9.726;2023-03-04T04:08:42;96511.34;;;-5.98;100.00
54038;BME280;39954;48.844;9.726;2023-03-04T04:09:48;96511.31;;;-5.99;100.00
54038;BME280;39954;48.844;9.726;2023-03-04T04:10:50;96505.38;;;-6.04;100.00
54038;BME280;39954;48.844;9.726;2023-03-04T04:11:55;96515.41;;;-6.09;100.00
54038;BME280;39954;48.844;9.726;2023-03-04T04:13:01;96506.88;;;-6.14;100.00
54038;BME280;39954;48.844;9.726;2023-03-04T04:14:08;96518.66;;;-6.18;100.00
54038;BME280;39954;48.844;9.726;2023-03-04T04:15:14;96512.72;;;-6.21;100.00
54038;BME280;39954;48.844;9.726;2023-03-04T04:16:22;96511.78;;;-6.25;100.00
54038;BME280;39954;48.844;9.726;2023-03-04T04:17:24;96518.56;;;-6.24;100.00
54038;BME280;39954;48.844;9.726;2023-03-04T04:18:30;96516.84;;;-6.25;100.00
54038;BME280;39954;48.844;9.726;2023-03-04T04:19:32;96510.06;;;-6.29;100.00
54038;BME280;39954;48.844;9.726;2023-03-04T04:20:37;96513.41;;;-6.30;100.00
54038;BME280;39954;48.844;9.726;2023-03-04T04:21:40;96513.38;;;-6.32;100.00
54038;BME280;39954;48.844;9.726;2023-03-04T04:22:46;96505.75;;;-6.33;100.00
54038;BME280;39954;48.844;9.726;2023-03-04T04:23:48;96520.09;;;-6.35;100.00
54038;BME280;39954;48.844;9.726;2023-03-04T04:24:56;96517.50;;;-6.37;100.00
54038;BME280;39954;48.844;9.726;2023-03-04T04:25:58;96511.75;;;-6.28;100.00
54038;BME280;39954;48.844;9.726;2023-03-04T04:27:05;96517.59;;;-6.32;100.00
54038;BME280;39954;48.844;9.726;2023-03-04T04:28:11;96509.97;;;-6.35;100.00
54038;BME280;39954;48.844;9.726;2023-03-04T04:29:16;96510.78;;;-6.36;100.00
54038;BME280;39954;48.844;9.726;2023-03-04T04:30:19;96512.44;;;-6.37;100.00
54038;BME280;39954;48.844;9.726;2023-03-04T04:31:25;96516.72;;;-6.34;100.00
54038;BME280;39954;48.844;9.726;2023-03-04T04:32:28;96516.66;;;-6.37;100.00
54038;BME280;39954;48.844;9.726;2023-03-04T04:33:34;96513.25;;;-6.41;100.00
54038;BME280;39954;48.844;9.726;2023-03-04T04:34:36;96517.44;;;-6.41;100.00
54038;BME280;39954;48.844;9.726;2023-03-04T04:35:42;96514.94;;;-6.40;100.00
54038;BME280;39954;48.844;9.726;2023-03-04T04:36:44;96518.31;;;-6.39;100.00
54038;BME280;39954;48.844;9.726;2023-03-04T04:37:49;96519.09;;;-6.43;100.00
54038;BME280;39954;48.844;9.726;2023-03-04T04:38:52;96515.72;;;-6.44;100.00
54038;BME280;39954;48.844;9.726;2023-03-04T04:39:58;96515.66;;;-6.48;100.00
54038;BME280;39954;48.844;9.726;2023-03-04T04:41:01;96519.00;;;-6.49;100.00
54038;BME280;39954;48.844;9.726;2023-03-04T04:42:08;96513.03;;;-6.55;100.00
54038;BME280;39954;48.844;9.726;2023-03-04T04:43:14;96517.28;;;-6.52;100.00
54038;BME280;39954;48.844;9.726;2023-03-04T04:44:19;96513.06;;;-6.51;100.00
54038;BME280;39954;48.844;9.726;2023-03-04T04:45:25;96511.44;;;-6.49;100.00
54038;BME280;39954;48.844;9.726;2023-03-04T04:46:27;96508.19;;;-6.39;100.00
54038;BME280;39954;48.844;9.726;2023-03-04T04:47:32;96510.00;;;-6.32;100.00
54038;BME280;39954;48.844;9.726;2023-03-04T04:48:34;96506.88;;;-6.16;100.00
54038;BME280;39954;48.844;9.726;2023-03-04T04:49:40;96508.00;;;-5.94;100.00
54038;BME280;39954;48.844;9.726;2023-03-04T04:50:42;96508.19;;;-5.81;100.00
54038;BME280;39954;48.844;9.726;2023-03-04T04:51:47;96509.16;;;-5.69;100.00
54038;BME280;39954;48.844;9.726;2023-03-04T04:52:53;96509.16;;;-5.69;100.00
54038;BME280;39954;48.844;9.726;2023-03-04T04:53:56;96500.69;;;-5.74;100.00
54038;BME280;39954;48.844;9.726;2023-03-04T04:55:03;96506.72;;;-5.64;100.00
54038;BME280;39954;48.844;9.726;2023-03-04T04:56:10;96505.19;;;-5.51;100.00
54038;BME280;39954;48.844;9.726;2023-03-04T04:57:16;96501.00;;;-5.46;100.00
54038;BME280;39954;48.844;9.726;2023-03-04T04:58:21;96503.59;;;-5.43;100.00
54038;BME280;39954;48.844;9.726;2023-03-04T04:59:26;96495.16;;;-5.42;100.00
54038;BME280;39954;48.844;9.726;2023-03-04T05:00:28;96496.88;;;-5.38;100.00
54038;BME280;39954;48.844;9.726;2023-03-04T05:01:34;96497.00;;;-5.27;100.00
54038;BME280;39954;48.844;9.726;2023-03-04T05:02:36;96505.56;;;-5.21;100.00
54038;BME280;39954;48.844;9.726;2023-03-04T05:03:42;96505.56;;;-5.19;100.00
54038;BME280;39954;48.844;9.726;2023-03-04T05:04:44;96504.63;;;-5.29;100.00
54038;BME280;39954;48.844;9.726;2023-03-04T05:05:50;96513.84;;;-5.32;100.00
54038;BME280;39954;48.844;9.726;2023-03-04T05:06:52;96511.19;;;-5.45;100.00
54038;BME280;39954;48.844;9.726;2023-03-04T05:08:00;96514.44;;;-5.53;100.00
54038;BME280;39954;48.844;9.726;2023-03-04T05:09:03;96512.69;;;-5.57;100.00
54038;BME280;39954;48.844;9.726;2023-03-04T05:10:09;96509.47;;;-5.44;100.00
54038;BME280;39954;48.844;9.726;2023-03-04T05:11:15;96514.47;;;-5.50;100.00
54038;BME280;39954;48.844;9.726;2023-03-04T05:12:22;96516.28;;;-5.43;100.00
54038;BME280;39954;48.844;9.726;2023-03-04T05:13:27;96511.06;;;-5.52;100.00
54038;BME280;39954;48.844;9.726;2023-03-04T05:14:32;96506.78;;;-5.59;100.00
54038;BME280;39954;48.844;9.726;2023-03-04T05:15:36;96515.13;;;-5.67;100.00
54038;BME280;39954;48.844;9.726;2023-03-04T05:16:41;96516.75;;;-5.70;100.00
54038;BME280;39954;48.844;9.726;2023-03-04T05:17:44;96521.81;;;-5.70;100.00
54038;BME280;39954;48.844;9.726;2023-03-04T05:18:50;96511.78;;;-5.66;100.00
54038;BME280;39954;48.844;9.726;2023-03-04T05:19:52;96516.84;;;-5.64;100.00
54038;BME280;39954;48.844;9.726;2023-03-04T05:21:00;96515.16;;;-5.64;100.00
54038;BME280;39954;48.844;9.726;2023-03-04T05:22:04;96515.16;;;-5.64;100.00
54038;BME280;39954;48.844;9.726;2023-03-04T05:23:09;96516.84;;;-5.66;100.00
54038;BME280;39954;48.844;9.726;2023-03-04T05:24:11;96517.59;;;-5.70;100.00
54038;BME280;39954;48.844;9.726;2023-03-04T05:25:16;96517.56;;;-5.73;100.00
54038;BME280;39954;48.844;9.726;2023-03-04T05:26:19;96520.91;;;-5.77;100.00
54038;BME280;39954;48.844;9.726;2023-03-04T05:27:24;96517.47;;;-5.80;100.00
54038;BME280;39954;48.844;9.726;2023-03-04T05:28:29;96518.31;;;-5.81;100.00
54038;BME280;39954;48.844;9.726;2023-03-04T05:29:34;96526.66;;;-5.87;100.00
54038;BME280;39954;48.844;9.726;2023-03-04T05:30:37;96519.22;;;-5.75;100.00
54038;BME280;39954;48.844;9.726;2023-03-04T05:31:42;96520.03;;;-5.77;100.00
54038;BME280;39954;48.844;9.726;2023-03-04T05:32:44;96517.50;;;-5.79;100.00
54038;BME280;39954;48.844;9.726;2023-03-04T05:33:50;96518.44;;;-5.71;100.00
54038;BME280;39954;48.844;9.726;2023-03-04T05:34:53;96510.13;;;-5.60;100.00
54038;BME280;39954;48.844;9.726;2023-03-04T05:35:58;96523.66;;;-5.60;100.00
54038;BME280;39954;48.844;9.726;2023-03-04T05:37:00;96513.56;;;-5.55;100.00
54038;BME280;39954;48.844;9.726;2023-03-04T05:38:09;96511.03;;;-5.55;100.00
54038;BME280;39954;48.844;9.726;2023-03-04T05:39:11;96516.06;;;-5.60;100.00